Time,TemperatureF,DewpointF,PressureIn,WindDirection,WindDirectionDegrees,WindSpeedMPH,WindSpeedGustMPH,Humidity,HourlyPrecipIn,Conditions,Clouds,dailyrainin,SoftwareType,DateUTC
2015-05-27 00:04:00,66.6,55.7,29.71,SW,231,8.1,8.1,68,0.00,,---,0.00,VWS V14.01,2015-05-26 21:04:00,
2015-05-27 00:09:00,66.6,55.7,29.71,WSW,252,5.4,8.1,68,0.00,,---,0.00,VWS V14.01,2015-05-26 21:09:00,
2015-05-27 00:15:00,66.4,55.9,29.71,West,279,5.4,5.8,69,0.00,,---,0.00,VWS V14.01,2015-05-26 21:15:00,
2015-05-27 00:20:00,66.4,55.9,29.71,SW,229,3.1,5.4,69,0.00,,---,0.00,VWS V14.01,2015-05-26 21:20:00,
2015-05-27 00:26:00,66.4,55.9,29.71,SW,230,3.6,6.3,69,0.00,,---,0.00,VWS V14.01,2015-05-26 21:26:00,
2015-05-27 00:32:00,66.4,56.3,29.71,WSW,240,3.1,6.3,70,0.00,,---,0.00,VWS V14.01,2015-05-26 21:32:00,
2015-05-27 00:37:00,66.4,56.3,29.71,WSW,244,5.4,5.4,70,0.00,,---,0.00,VWS V14.01,2015-05-26 21:37:00,
2015-05-27 00:43:00,66.4,56.3,29.71,SW,217,4.5,4.5,70,0.00,,---,0.00,VWS V14.01,2015-05-26 21:43:00,
2015-05-27 00:48:00,66.2,56.1,29.71,South,189,3.6,5.4,70,0.00,,---,0.00,VWS V14.01,2015-05-26 21:48:00,
2015-05-27 00:54:00,66.2,56.1,29.71,SE,144,6.3,6.3,70,0.00,,---,0.00,VWS V14.01,2015-05-26 21:54:00,
2015-05-27 01:00:00,66.0,56.0,29.71,SSE,158,8.1,8.1,70,0.00,,---,0.00,VWS V14.01,2015-05-26 22:00:00,
2015-05-27 01:05:00,66.0,56.0,29.68,SE,145,4.0,4.0,70,0.00,,---,0.00,VWS V14.01,2015-05-26 22:05:00,
2015-05-27 01:11:00,66.0,55.6,29.68,ESE,117,3.6,5.8,69,0.00,,---,0.00,VWS V14.01,2015-05-26 22:11:00,
2015-05-27 01:16:00,66.0,54.8,29.68,SE,136,2.7,4.0,67,0.00,,---,0.00,VWS V14.01,2015-05-26 22:16:00,
2015-05-27 01:22:00,66.2,54.5,29.68,SE,136,0.0,0.0,66,0.00,,---,0.00,VWS V14.01,2015-05-26 22:22:00,
2015-05-27 01:28:00,66.2,54.5,29.68,SE,136,0.0,0.0,66,0.00,,---,0.00,VWS V14.01,2015-05-26 22:28:00,
2015-05-27 01:33:00,66.2,54.1,29.68,SE,136,0.0,0.0,65,0.00,,---,0.00,VWS V14.01,2015-05-26 22:33:00,
2015-05-27 01:39:00,66.2,54.1,29.68,NNW,329,0.0,0.0,65,0.00,,---,0.00,VWS V14.01,2015-05-26 22:39:00,
2015-05-27 01:44:00,66.2,54.1,29.68,NW,321,2.7,3.6,65,0.00,,---,0.00,VWS V14.01,2015-05-26 22:44:00,
2015-05-27 01:50:00,66.2,53.7,29.68,WNW,301,0.0,0.0,64,0.00,,---,0.00,VWS V14.01,2015-05-26 22:50:00,
2015-05-27 01:55:00,66.2,53.7,29.68,WNW,301,0.0,0.0,64,0.00,,---,0.00,VWS V14.01,2015-05-26 22:55:00,
2015-05-27 02:00:00,66.0,53.5,29.68,WNW,301,0.0,0.0,64,0.00,,---,0.00,VWS V14.01,2015-05-26 23:00:00,
2015-05-27 02:05:00,66.0,53.5,29.68,West,279,0.0,0.0,64,0.00,,---,0.00,VWS V14.01,2015-05-26 23:05:00,
2015-05-27 02:11:00,65.8,53.3,29.68,WSW,246,0.0,0.0,64,0.00,,---,0.00,VWS V14.01,2015-05-26 23:11:00,
2015-05-27 02:17:00,65.7,53.2,29.68,WSW,246,0.0,0.0,64,0.00,,---,0.00,VWS V14.01,2015-05-26 23:17:00,
2015-05-27 02:22:00,65.5,53.0,29.68,WSW,246,0.0,0.0,64,0.00,,---,0.00,VWS V14.01,2015-05-26 23:22:00,
2015-05-27 02:28:00,65.3,52.8,29.68,WSW,246,0.0,0.0,64,0.00,,---,7.87,VWS V14.01,2015-05-26 23:28:00,
2015-05-27 02:33:00,65.1,52.7,29.68,WSW,246,0.0,0.0,64,0.00,,---,0.00,VWS V14.01,2015-05-26 23:33:00,
2015-05-27 02:38:00,65.1,53.1,29.68,WSW,246,0.0,0.0,65,0.00,,---,0.00,VWS V14.01,2015-05-26 23:38:00,
2015-05-27 02:43:00,65.1,53.1,29.68,WSW,246,0.0,0.0,65,0.00,,---,0.00,VWS V14.01,2015-05-26 23:43:00,
2015-05-27 02:49:00,65.1,53.5,29.68,WSW,247,0.0,0.0,66,0.00,,---,0.00,VWS V14.01,2015-05-26 23:49:00,
2015-05-27 02:54:00,65.1,53.5,29.68,WSW,246,0.0,0.0,66,0.00,,---,0.00,VWS V14.01,2015-05-26 23:54:00,
2015-05-27 02:59:00,65.1,53.5,29.68,WSW,246,0.0,0.0,66,0.00,,---,0.00,VWS V14.01,2015-05-26 23:59:00,
2015-05-27 03:04:00,65.1,53.9,29.68,WSW,246,0.0,0.0,67,0.00,,---,0.00,VWS V14.01,2015-05-27 00:04:00,
2015-05-27 03:09:00,65.1,53.9,29.68,WSW,246,0.0,0.0,67,0.00,,---,0.00,VWS V14.01,2015-05-27 00:09:00,
2015-05-27 03:14:00,65.3,54.5,29.68,WSW,246,0.0,0.0,68,0.00,,---,0.00,VWS V14.01,2015-05-27 00:14:00,
2015-05-27 03:20:00,65.3,54.9,29.65,NNE,31,0.0,0.0,69,7.87,,---,0.00,VWS V14.01,2015-05-27 00:20:00,
2015-05-27 03:25:00,65.3,55.3,29.65,NNE,16,0.0,0.0,70,7.87,,---,0.00,VWS V14.01,2015-05-27 00:25:00,
2015-05-27 03:30:00,65.3,55.3,29.65,NNE,15,0.0,0.0,70,0.00,,---,0.00,VWS V14.01,2015-05-27 00:30:00,
2015-05-27 03:35:00,65.1,55.5,29.65,North,357,0.0,0.0,71,0.00,,---,0.00,VWS V14.01,2015-05-27 00:35:00,
2015-05-27 03:41:00,65.1,55.1,29.65,NNW,340,0.0,0.0,70,0.00,,---,0.00,VWS V14.01,2015-05-27 00:41:00,
2015-05-27 03:46:00,65.1,55.5,29.65,North,353,0.0,0.0,71,0.00,,---,0.00,VWS V14.01,2015-05-27 00:46:00,
2015-05-27 03:52:00,64.9,55.3,29.65,North,353,0.0,0.0,71,0.00,,---,0.00,VWS V14.01,2015-05-27 00:52:00,
2015-05-27 03:58:00,64.9,55.3,29.65,North,353,0.0,0.0,71,0.00,,---,0.00,VWS V14.01,2015-05-27 00:58:00,
2015-05-27 04:03:00,64.8,55.2,29.65,NW,312,0.0,0.0,71,0.00,,---,0.00,VWS V14.01,2015-05-27 01:03:00,
2015-05-27 04:09:00,64.8,55.5,29.65,NW,320,0.0,0.0,72,0.00,,---,0.00,VWS V14.01,2015-05-27 01:09:00,
2015-05-27 04:14:00,64.6,55.4,29.65,NW,320,0.0,0.0,72,0.00,,---,0.00,VWS V14.01,2015-05-27 01:14:00,
2015-05-27 04:19:00,64.6,55.4,29.65,NW,321,0.0,0.0,72,0.00,,---,0.00,VWS V14.01,2015-05-27 01:19:00,
2015-05-27 04:24:00,64.4,55.6,29.65,NW,325,0.0,0.0,73,0.00,,---,0.00,VWS V14.01,2015-05-27 01:24:00,
2015-05-27 04:30:00,64.4,55.6,29.65,North,357,0.0,0.0,73,0.00,,---,0.00,VWS V14.01,2015-05-27 01:30:00,
2015-05-27 04:35:00,64.4,55.9,29.65,North,349,0.0,0.0,74,0.00,,---,0.00,VWS V14.01,2015-05-27 01:35:00,
2015-05-27 04:41:00,64.4,56.3,29.65,North,10,0.0,0.0,75,0.00,,---,0.00,VWS V14.01,2015-05-27 01:41:00,
2015-05-27 04:46:00,64.2,56.5,29.65,North,10,0.0,0.0,76,0.00,,---,0.00,VWS V14.01,2015-05-27 01:46:00,
2015-05-27 04:52:00,64.2,56.5,29.65,North,10,0.0,0.0,76,0.00,,---,0.00,VWS V14.01,2015-05-27 01:52:00,
2015-05-27 04:58:00,64.0,56.7,29.65,North,10,0.0,0.0,77,0.00,,---,0.00,VWS V14.01,2015-05-27 01:58:00,
2015-05-27 05:03:00,64.0,56.7,29.65,North,10,0.0,0.0,77,0.00,,---,0.00,VWS V14.01,2015-05-27 02:03:00,
2015-05-27 05:09:00,63.9,56.5,29.65,North,10,0.0,0.0,77,0.00,,---,0.00,VWS V14.01,2015-05-27 02:09:00,
2015-05-27 05:14:00,63.7,56.3,29.65,North,10,0.0,0.0,77,0.00,,---,0.00,VWS V14.01,2015-05-27 02:14:00,
2015-05-27 05:20:00,63.5,56.2,29.65,North,10,0.0,0.0,77,0.00,,---,0.00,VWS V14.01,2015-05-27 02:20:00,
2015-05-27 05:26:00,63.3,56.0,29.65,North,10,0.0,0.0,77,0.00,,---,0.00,VWS V14.01,2015-05-27 02:26:00,
2015-05-27 05:31:00,63.1,55.8,29.65,North,10,0.0,0.0,77,0.00,,---,0.00,VWS V14.01,2015-05-27 02:31:00,
2015-05-27 05:36:00,63.1,56.2,29.65,North,10,0.0,0.0,78,0.00,,---,0.00,VWS V14.01,2015-05-27 02:36:00,
2015-05-27 05:42:00,63.0,56.0,29.65,North,10,0.0,0.0,78,0.00,,---,0.00,VWS V14.01,2015-05-27 02:42:00,
2015-05-27 05:48:00,62.8,55.8,29.65,North,10,0.0,0.0,78,0.00,,---,0.00,VWS V14.01,2015-05-27 02:48:00,
2015-05-27 05:54:00,62.6,55.7,29.65,North,10,0.0,0.0,78,0.00,,---,0.00,VWS V14.01,2015-05-27 02:54:00,
2015-05-27 05:59:00,62.8,56.2,29.65,North,10,0.0,0.0,79,0.00,,---,0.00,VWS V14.01,2015-05-27 02:59:00,
2015-05-27 06:04:00,62.6,56.0,29.65,North,10,0.0,0.0,79,0.00,,---,0.00,VWS V14.01,2015-05-27 03:04:00,
2015-05-27 06:10:00,62.8,56.5,29.65,North,10,0.0,0.0,80,0.00,,---,0.00,VWS V14.01,2015-05-27 03:10:00,
2015-05-27 06:15:00,62.8,56.5,29.65,North,10,0.0,0.0,80,0.00,,---,0.00,VWS V14.01,2015-05-27 03:15:00,
2015-05-27 06:21:00,62.8,56.9,29.65,North,10,0.0,0.0,81,0.00,,---,0.00,VWS V14.01,2015-05-27 03:21:00,
2015-05-27 06:27:00,62.8,56.9,29.65,North,10,0.0,0.0,81,0.00,,---,0.00,VWS V14.01,2015-05-27 03:27:00,
2015-05-27 06:33:00,63.0,57.0,29.65,North,10,0.0,0.0,81,0.00,,---,0.00,VWS V14.01,2015-05-27 03:33:00,
2015-05-27 06:38:00,63.0,57.0,29.65,North,10,0.0,0.0,81,0.00,,---,0.00,VWS V14.01,2015-05-27 03:38:00,
2015-05-27 06:43:00,62.8,56.9,29.65,North,10,0.0,0.0,81,0.00,,---,0.00,VWS V14.01,2015-05-27 03:43:00,
2015-05-27 06:48:00,62.6,56.7,29.65,North,10,0.0,0.0,81,0.00,,---,0.00,VWS V14.01,2015-05-27 03:48:00,
2015-05-27 06:54:00,62.6,56.7,29.65,North,6,0.0,0.0,81,0.00,,---,0.00,VWS V14.01,2015-05-27 03:54:00,
2015-05-27 06:59:00,62.6,56.7,29.65,North,6,0.0,0.0,81,0.00,,---,0.00,VWS V14.01,2015-05-27 03:59:00,
2015-05-27 07:04:00,62.6,57.0,29.65,North,6,0.0,0.0,82,0.00,,---,0.00,VWS V14.01,2015-05-27 04:04:00,
2015-05-27 07:09:00,62.8,57.2,29.65,North,6,0.0,0.0,82,0.00,,---,0.00,VWS V14.01,2015-05-27 04:09:00,
2015-05-27 07:15:00,63.0,57.4,29.65,North,6,0.0,0.0,82,0.00,,---,0.00,VWS V14.01,2015-05-27 04:15:00,
2015-05-27 07:20:00,63.0,57.4,29.65,ESE,120,0.0,0.0,82,0.00,,---,0.00,VWS V14.01,2015-05-27 04:20:00,
2015-05-27 07:26:00,63.1,57.6,29.65,ESE,120,0.0,0.0,82,0.00,,---,0.00,VWS V14.01,2015-05-27 04:26:00,
2015-05-27 07:31:00,63.5,57.9,29.65,ESE,121,0.0,0.0,82,0.00,,---,0.00,VWS V14.01,2015-05-27 04:31:00,
2015-05-27 07:37:00,63.9,58.3,29.65,ESE,120,0.0,0.0,82,0.00,,---,0.00,VWS V14.01,2015-05-27 04:37:00,
2015-05-27 07:42:00,64.0,58.4,29.65,ESE,121,0.0,0.0,82,0.00,,---,0.00,VWS V14.01,2015-05-27 04:42:00,
2015-05-27 07:48:00,64.4,58.8,29.65,ESE,121,0.0,0.0,82,0.00,,---,0.00,VWS V14.01,2015-05-27 04:48:00,
2015-05-27 07:54:00,64.9,59.3,29.65,ESE,121,0.0,0.0,82,0.00,,---,0.00,VWS V14.01,2015-05-27 04:54:00,
2015-05-27 07:59:00,65.1,59.5,29.65,South,185,0.0,0.0,82,0.00,,---,0.00,VWS V14.01,2015-05-27 04:59:00,
2015-05-27 08:05:00,65.3,59.7,29.65,SW,222,0.0,2.2,82,0.00,,---,0.00,VWS V14.01,2015-05-27 05:05:00,
2015-05-27 08:10:00,65.3,59.7,29.65,SW,235,0.0,0.0,82,0.00,,---,0.00,VWS V14.01,2015-05-27 05:10:00,
2015-05-27 08:15:00,65.5,59.8,29.65,SW,228,4.0,4.9,82,0.00,,---,0.00,VWS V14.01,2015-05-27 05:15:00,
2015-05-27 08:20:00,65.5,59.8,29.65,SW,218,0.0,0.0,82,0.00,,---,0.00,VWS V14.01,2015-05-27 05:20:00,
2015-05-27 08:26:00,65.5,59.8,29.65,SSW,202,0.0,0.0,82,0.00,,---,0.00,VWS V14.01,2015-05-27 05:26:00,
2015-05-27 08:32:00,65.7,60.0,29.65,SW,214,3.1,4.0,82,0.00,,---,0.00,VWS V14.01,2015-05-27 05:32:00,
2015-05-27 08:37:00,65.7,60.0,29.65,SW,216,0.0,3.1,82,0.00,,---,0.00,VWS V14.01,2015-05-27 05:37:00,
2015-05-27 08:43:00,65.8,60.2,29.65,SW,216,0.0,0.0,82,0.00,,---,0.00,VWS V14.01,2015-05-27 05:43:00,
2015-05-27 08:48:00,65.8,60.2,29.65,SW,224,0.0,0.0,82,0.00,,---,0.00,VWS V14.01,2015-05-27 05:48:00,
2015-05-27 08:53:00,66.0,60.4,29.65,SW,221,0.0,0.0,82,0.00,,---,0.00,VWS V14.01,2015-05-27 05:53:00,
2015-05-27 08:58:00,66.2,60.5,29.65,SW,221,0.0,0.0,82,0.00,,---,0.00,VWS V14.01,2015-05-27 05:58:00,
2015-05-27 09:03:00,66.6,60.9,29.65,SW,216,0.0,0.0,82,0.00,,---,0.00,VWS V14.01,2015-05-27 06:03:00,
2015-05-27 09:08:00,66.9,61.2,29.65,SSW,207,0.0,0.0,82,0.00,,---,0.00,VWS V14.01,2015-05-27 06:08:00,
2015-05-27 09:14:00,67.1,61.4,29.65,SSW,193,0.0,0.0,82,0.00,,---,0.00,VWS V14.01,2015-05-27 06:14:00,
2015-05-27 09:20:00,67.3,61.6,29.65,SW,215,2.7,4.0,82,0.00,,---,0.00,VWS V14.01,2015-05-27 06:20:00,
2015-05-27 09:26:00,67.6,61.6,29.65,SW,225,0.0,3.1,81,0.00,,---,0.00,VWS V14.01,2015-05-27 06:26:00,
2015-05-27 09:31:00,67.8,61.8,29.65,SSW,200,5.4,6.3,81,0.00,,---,0.00,VWS V14.01,2015-05-27 06:31:00,
2015-05-27 09:36:00,67.8,61.1,29.65,SE,135,0.0,3.1,79,0.00,,---,0.00,VWS V14.01,2015-05-27 06:36:00,
2015-05-27 09:41:00,67.8,61.1,29.65,SSW,201,3.6,4.0,79,0.00,,---,0.00,VWS V14.01,2015-05-27 06:41:00,
2015-05-27 09:47:00,67.8,60.7,29.65,SE,142,0.0,0.0,78,0.00,,---,0.00,VWS V14.01,2015-05-27 06:47:00,
2015-05-27 09:52:00,68.2,61.1,29.65,SW,229,4.0,4.0,78,0.00,,---,0.00,VWS V14.01,2015-05-27 06:52:00,
2015-05-27 09:58:00,68.5,61.4,29.65,SSW,195,0.0,0.0,78,0.00,,---,0.00,VWS V14.01,2015-05-27 06:58:00,
2015-05-27 10:04:00,69.1,61.6,29.65,SW,217,3.1,3.1,77,0.00,,---,0.00,VWS V14.01,2015-05-27 07:04:00,